sensor_id;sensor_type;location;lat;lon;timestamp;pressure;altitude;pressure_sealevel;temperature;humidity
71666;BME280;59503;53.486;10.196;2023-07-31T00:01:17;100900.41;;;12.57;100.00
71666;BME280;59503;53.486;10.196;2023-07-31T00:03:42;100894.97;;;12.57;100.00
71666;BME280;59503;53.486;10.196;2023-07-31T00:06:08;100894.22;;;12.60;100.00
71666;BME280;59503;53.486;10.196;2023-07-31T00:08:33;100893.50;;;12.63;100.00
71666;BME280;59503;53.486;10.196;2023-07-31T00:10:58;100893.88;;;12.65;100.00
71666;BME280;59503;53.486;10.196;2023-07-31T00:13:24;100886.50;;;12.66;100.00
71666;BME280;59503;53.486;10.196;2023-07-31T00:15:49;100884.56;;;12.66;100.00
71666;BME280;59503;53.486;10.196;2023-07-31T00:18:15;100883.81;;;12.69;100.00
71666;BME280;59503;53.486;10.196;2023-07-31T00:20:41;100876.47;;;12.73;100.00
71666;BME280;59503;53.486;10.196;2023-07-31T00:23:06;100889.34;;;12.76;100.00
71666;BME280;59503;53.486;10.196;2023-07-31T00:25:32;100875.72;;;12.76;100.00
71666;BME280;59503;53.486;10.196;2023-07-31T00:27:57;100871.81;;;12.77;100.00
71666;BME280;59503;53.486;10.196;2023-07-31T00:30:22;100876.88;;;12.75;100.00
71666;BME280;59503;53.486;10.196;2023-07-31T00:32:50;100875.72;;;12.76;100.00
71666;BME280;59503;53.486;10.196;2023-07-31T00:35:16;100872.25;;;12.79;100.00
71666;BME280;59503;53.486;10.196;2023-07-31T00:37:41;100868.72;;;12.79;100.00
71666;BME280;59503;53.486;10.196;2023-07-31T00:40:07;100863.25;;;12.79;100.00
71666;BME280;59503;53.486;10.196;2023-07-31T00:42:32;100871.41;;;12.75;100.00
71666;BME280;59503;53.486;10.196;2023-07-31T00:44:58;100866.31;;;12.74;100.00
71666;BME280;59503;53.486;10.196;2023-07-31T00:47:23;100869.09;;;12.77;100.00
71666;BME280;59503;53.486;10.196;2023-07-31T00:49:49;100869.50;;;12.79;100.00
71666;BME280;59503;53.486;10.196;2023-07-31T00:52:15;100863.31;;;12.82;100.00
71666;BME280;59503;53.486;10.196;2023-07-31T00:54:40;100865.31;;;12.85;100.00
71666;BME280;59503;53.486;10.196;2023-07-31T00:57:06;100855.59;;;12.88;100.00
71666;BME280;59503;53.486;10.196;2023-07-31T00:59:33;100850.13;;;12.88;100.00
71666;BME280;59503;53.486;10.196;2023-07-31T01:01:59;100850.13;;;12.88;100.00
71666;BME280;59503;53.486;10.196;2023-07-31T01:04:25;100852.44;;;12.86;100.00
71666;BME280;59503;53.486;10.196;2023-07-31T01:07:21;100843.84;;;12.84;100.00
71666;BME280;59503;53.486;10.196;2023-07-31T01:09:53;100844.59;;;12.81;100.00
71666;BME280;59503;53.486;10.196;2023-07-31T01:12:23;100837.16;;;12.78;100.00
71666;BME280;59503;53.486;10.196;2023-07-31T01:15:08;100834.75;;;12.73;100.00
71666;BME280;59503;53.486;10.196;2023-07-31T01:17:38;100840.19;;;12.69;100.00
71666;BME280;59503;53.486;10.196;2023-07-31T01:20:05;100836.63;;;12.65;100.00
71666;BME280;59503;53.486;10.196;2023-07-31T01:28:15;100831.44;;;12.53;100.00
71666;BME280;59503;53.486;10.196;2023-07-31T01:30:48;100836.47;;;12.51;100.00
71666;BME280;59503;53.486;10.196;2023-07-31T01:33:17;100827.91;;;12.52;100.00
71666;BME280;59503;53.486;10.196;2023-07-31T01:35:48;100828.66;;;12.49;100.00
71666;BME280;59503;53.486;10.196;2023-07-31T01:38:14;100825.19;;;12.52;100.00
71666;BME280;59503;53.486;10.196;2023-07-31T01:40:42;100820.53;;;12.53;100.00
71666;BME280;59503;53.486;10.196;2023-07-31T01:43:08;100807.72;;;12.57;100.00
71666;BME280;59503;53.486;10.196;2023-07-31T01:45:33;100810.88;;;12.63;100.00
71666;BME280;59503;53.486;10.196;2023-07-31T01:47:59;100814.06;;;12.68;100.00
71666;BME280;59503;53.486;10.196;2023-07-31T01:50:24;100803.56;;;12.70;100.00
71666;BME280;59503;53.486;10.196;2023-07-31T01:52:50;100801.66;;;12.74;100.00
71666;BME280;59503;53.486;10.196;2023-07-31T01:55:15;100803.63;;;12.77;100.00
71666;BME280;59503;53.486;10.196;2023-07-31T01:57:40;100793.50;;;12.78;100.00
71666;BME280;59503;53.486;10.196;2023-07-31T02:00:06;100798.22;;;12.81;100.00
71666;BME280;59503;53.486;10.196;2023-07-31T02:02:33;100788.09;;;12.81;100.00
71666;BME280;59503;53.486;10.196;2023-07-31T02:04:58;100790.84;;;12.85;100.00
71666;BME280;59503;53.486;10.196;2023-07-31T02:07:23;100790.84;;;12.85;100.00
71666;BME280;59503;53.486;10.196;2023-07-31T02:09:49;100783.09;;;12.87;100.00
71666;BME280;59503;53.486;10.196;2023-07-31T02:12:14;100783.84;;;12.87;100.00
71666;BME280;59503;53.486;10.196;2023-07-31T02:14:40;100781.13;;;12.87;100.00
71666;BME280;59503;53.486;10.196;2023-07-31T02:17:06;100782.34;;;12.90;100.00
71666;BME280;59503;53.486;10.196;2023-07-31T02:19:31;100772.97;;;12.91;100.00
71666;BME280;59503;53.486;10.196;2023-07-31T02:21:57;100772.59;;;12.92;100.00
71666;BME280;59503;53.486;10.196;2023-07-31T02:24:23;100766.00;;;12.93;100.00
71666;BME280;59503;53.486;10.196;2023-07-31T02:26:49;100772.25;;;12.97;100.00
71666;BME280;59503;53.486;10.196;2023-07-31T02:29:14;100763.34;;;13.00;100.00
71666;BME280;59503;53.486;10.196;2023-07-31T02:31:40;100764.53;;;13.03;100.00
71666;BME280;59503;53.486;10.196;2023-07-31T02:34:05;100759.50;;;13.05;100.00
71666;BME280;59503;53.486;10.196;2023-07-31T02:36:30;100755.22;;;13.07;100.00
71666;BME280;59503;53.486;10.196;2023-07-31T02:38:56;100752.13;;;13.12;100.00
71666;BME280;59503;53.486;10.196;2023-07-31T02:41:21;100759.19;;;13.13;100.00
71666;BME280;59503;53.486;10.196;2023-07-31T02:43:47;100753.34;;;13.15;100.00
71666;BME280;59503;53.486;10.196;2023-07-31T02:46:12;100756.06;;;13.15;100.00
71666;BME280;59503;53.486;10.196;2023-07-31T02:48:38;100752.94;;;13.16;100.00
71666;BME280;59503;53.486;10.196;2023-07-31T02:51:03;100751.81;;;13.21;100.00
71666;BME280;59503;53.486;10.196;2023-07-31T02:53:28;100757.28;;;13.24;100.00
71666;BME280;59503;53.486;10.196;2023-07-31T02:55:54;100752.25;;;13.26;100.00
71666;BME280;59503;53.486;10.196;2023-07-31T02:58:19;100738.59;;;13.26;100.00
71666;BME280;59503;53.486;10.196;2023-07-31T03:00:45;100746.06;;;13.33;100.00
71666;BME280;59503;53.486;10.196;2023-07-31T03:03:11;100751.13;;;13.34;100.00
71666;BME280;59503;53.486;10.196;2023-07-31T03:05:37;100742.16;;;13.37;100.00
71666;BME280;59503;53.486;10.196;2023-07-31T03:08:02;100746.50;;;13.38;100.00
71666;BME280;59503;53.486;10.196;2023-07-31T03:10:29;100746.09;;;13.40;100.00
71666;BME280;59503;53.486;10.196;2023-07-31T03:12:54;100749.63;;;13.40;100.00
71666;BME280;59503;53.486;10.196;2023-07-31T03:15:19;100742.59;;;13.43;100.00
71666;BME280;59503;53.486;10.196;2023-07-31T03:17:46;100742.22;;;13.44;100.00
71666;BME280;59503;53.486;10.196;2023-07-31T03:20:11;100739.50;;;13.44;100.00
71666;BME280;59503;53.486;10.196;2023-07-31T03:22:37;100725.88;;;13.48;100.00
71666;BME280;59503;53.486;10.196;2023-07-31T03:25:03;100727.81;;;13.47;100.00
71666;BME280;59503;53.486;10.196;2023-07-31T03:27:29;100720.81;;;13.50;100.00
71666;BME280;59503;53.486;10.196;2023-07-31T03:29:54;100718.06;;;13.50;100.00
71666;BME280;59503;53.486;10.196;2023-07-31T03:32:20;100714.97;;;13.51;100.00
71666;BME280;59503;53.486;10.196;2023-07-31T03:34:45;100719.25;;;13.52;100.00
71666;BME280;59503;53.486;10.196;2023-07-31T03:37:11;100711.84;;;13.53;100.00
71666;BME280;59503;53.486;10.196;2023-07-31T03:39:36;100705.63;;;13.56;100.00
71666;BME280;59503;53.486;10.196;2023-07-31T03:42:02;100715.00;;;13.58;100.00
71666;BME280;59503;53.486;10.196;2023-07-31T03:44:27;100709.19;;;13.63;100.00
71666;BME280;59503;53.486;10.196;2023-07-31T03:46:53;100701.38;;;13.62;100.00
71666;BME280;59503;53.486;10.196;2023-07-31T03:49:18;100715.81;;;13.66;100.00
71666;BME280;59503;53.486;10.196;2023-07-31T03:51:44;100709.97;;;13.67;100.00
71666;BME280;59503;53.486;10.196;2023-07-31T03:54:10;100711.56;;;13.72;100.00
71666;BME280;59503;53.486;10.196;2023-07-31T03:56:35;100714.31;;;13.76;100.00
71666;BME280;59503;53.486;10.196;2023-07-31T03:59:00;100717.06;;;13.79;100.00
71666;BME280;59503;53.486;10.196;2023-07-31T04:01:26;100725.66;;;13.85;100.00
71666;BME280;59503;53.486;10.196;2023-07-31T04:03:52;100721.78;;;13.86;100.00
71666;BME280;59503;53.486;10.196;2023-07-31T04:06:17;100717.47;;;13.88;100.00
71666;BME280;59503;53.486;10.196;2023-07-31T04:08:45;100717.50;;;13.92;100.00
71666;BME280;59503;53.486;10.196;2023-07-31T04:11:11;100713.63;;;13.93;100.00
71666;BME280;59503;53.486;10.196;2023-07-31T04:13:37;100713.63;;;13.93;100.00
71666;BME280;59503;53.486;10.196;2023-07-31T04:16:03;100720.25;;;13.95;100.00
71666;BME280;59503;53.486;10.196;2023-07-31T04:18:29;100713.59;;;13.96;100.00
71666;BME280;59503;53.486;10.196;2023-07-31T04:20:56;100717.53;;;13.99;100.00
71666;BME280;59503;53.486;10.196;2023-07-31T04:23:24;100715.19;;;13.97;100.00
71666;BME280;59503;53.486;10.196;2023-07-31T04:25:49;100719.09;;;14.03;100.00
71666;BME280;59503;53.486;10.196;2023-07-31T04:28:15;100714.41;;;14.04;100.00
71666;BME280;59503;53.486;10.196;2023-07-31T04:30:40;100715.59;;;14.03;100.00
71666;BME280;59503;53.486;10.196;2023-07-31T04:33:06;100710.50;;;14.01;100.00
71666;BME280;59503;53.486;10.196;2023-07-31T04:35:31;100696.47;;;14.03;100.00
71666;BME280;59503;53.486;10.196;2023-07-31T04:37:56;100692.56;;;14.04;100.00
71666;BME280;59503;53.486;10.196;2023-07-31T04:40:22;100696.47;;;14.03;100.00
71666;BME280;59503;53.486;10.196;2023-07-31T04:42:47;100683.16;;;14.01;100.00
71666;BME280;59503;53.486;10.196;2023-07-31T04:45:14;100686.28;;;14.03;100.00
71666;BME280;59503;53.486;10.196;2023-07-31T04:47:40;100679.28;;;14.06;100.00
71666;BME280;59503;53.486;10.196;2023-07-31T04:50:05;100690.22;;;14.06;100.00
71666;BME280;59503;53.486;10.196;2023-07-31T04:52:31;100685.16;;;14.04;100.00
71666;BME280;59503;53.486;10.196;2023-07-31T04:54:56;100679.28;;;14.06;100.00
71666;BME280;59503;53.486;10.196;2023-07-31T04:57:22;100676.97;;;14.08;100.00
71666;BME280;59503;53.486;10.196;2023-07-31T04:59:47;100666.78;;;14.05;100.00
71666;BME280;59503;53.486;10.196;2023-07-31T05:02:13;100666.78;;;14.08;100.00
71666;BME280;59503;53.486;10.196;2023-07-31T05:04:39;100666.41;;;14.10;100.00
71666;BME280;59503;53.486;10.196;2023-07-31T05:07:04;100666.81;;;14.12;100.00
71666;BME280;59503;53.486;10.196;2023-07-31T05:09:30;100671.88;;;14.13;100.00
71666;BME280;59503;53.486;10.196;2023-07-31T05:11:55;100664.84;;;14.12;100.00
71666;BME280;59503;53.486;10.196;2023-07-31T05:14:20;100661.34;;;14.12;100.00
71666;BME280;59503;53.486;10.196;2023-07-31T05:16:46;100657.06;;;14.14;100.00
71666;BME280;59503;53.486;10.196;2023-07-31T05:19:11;100653.53;;;14.14;100.00
71666;BME280;59503;53.486;10.196;2023-07-31T05:21:37;100664.50;;;14.21;100.00
71666;BME280;59503;53.486;10.196;2023-07-31T05:24:02;100662.91;;;14.20;100.00
71666;BME280;59503;53.486;10.196;2023-07-31T05:26:28;100669.16;;;14.17;100.00
71666;BME280;59503;53.486;10.196;2023-07-31T05:28:53;100667.63;;;14.23;100.00
71666;BME280;59503;53.486;10.196;2023-07-31T05:31:19;100672.75;;;14.28;100.00
71666;BME280;59503;53.486;10.196;2023-07-31T05:33:44;100673.88;;;14.27;100.00
71666;BME280;59503;53.486;10.196;2023-07-31T05:36:10;100664.91;;;14.30;100.00
71666;BME280;59503;53.486;10.196;2023-07-31T05:38:35;100675.84;;;14.30;100.00
71666;BME280;59503;53.486;10.196;2023-07-31T05:41:01;100668.41;;;14.27;100.00
71666;BME280;59503;53.486;10.196;2023-07-31T05:43:26;100673.09;;;14.30;100.00
71666;BME280;59503;53.486;10.196;2023-07-31T05:45:51;100674.69;;;14.34;100.00
71666;BME280;59503;53.486;10.196;2023-07-31T05:48:17;100674.31;;;14.32;100.00
71666;BME280;59503;53.486;10.196;2023-07-31T05:50:43;100680.94;;;14.35;100.00
71666;BME280;59503;53.486;10.196;2023-07-31T05:53:09;100673.91;;;14.34;100.00
71666;BME280;59503;53.486;10.196;2023-07-31T05:55:35;100666.09;;;14.32;100.00
71666;BME280;59503;53.486;10.196;2023-07-31T05:58:01;100670.00;;;14.35;100.00
71666;BME280;59503;53.486;10.196;2023-07-31T06:00:26;100675.88;;;14.37;100.00
71666;BME280;59503;53.486;10.196;2023-07-31T06:02:53;100662.59;;;14.39;100.00
71666;BME280;59503;53.486;10.196;2023-07-31T06:05:18;100656.34;;;14.42;100.00
71666;BME280;59503;53.486;10.196;2023-07-31T06:07:44;100646.59;;;14.48;100.00
71666;BME280;59503;53.486;10.196;2023-07-31T06:10:09;100644.22;;;14.50;100.00
71666;BME280;59503;53.486;10.196;2023-07-31T06:12:35;100643.47;;;14.53;100.00
71666;BME280;59503;53.486;10.196;2023-07-31T06:15:04;100643.47;;;14.56;100.00
71666;BME280;59503;53.486;10.196;2023-07-31T06:17:31;100640.34;;;14.61;100.00
71666;BME280;59503;53.486;10.196;2023-07-31T06:19:57;100633.69;;;14.62;100.00
71666;BME280;59503;53.486;10.196;2023-07-31T06:22:22;100646.56;;;14.72;100.00
71666;BME280;59503;53.486;10.196;2023-07-31T06:24:48;100651.25;;;14.72;100.00
71666;BME280;59503;53.486;10.196;2023-07-31T06:27:13;100648.91;;;14.74;100.00
71666;BME280;59503;53.486;10.196;2023-07-31T06:29:39;100641.91;;;14.80;100.00
71666;BME280;59503;53.486;10.196;2023-07-31T06:32:04;100639.53;;;14.85;100.00
71666;BME280;59503;53.486;10.196;2023-07-31T06:34:29;100647.72;;;14.85;100.00
71666;BME280;59503;53.486;10.196;2023-07-31T06:36:56;100639.13;;;14.90;100.00
71666;BME280;59503;53.486;10.196;2023-07-31T06:39:21;100637.97;;;14.91;100.00
71666;BME280;59503;53.486;10.196;2023-07-31T06:41:47;100643.81;;;14.93;100.00
71666;BME280;59503;53.486;10.196;2023-07-31T06:44:13;100631.72;;;14.91;100.00
71666;BME280;59503;53.486;10.196;2023-07-31T06:46:38;100637.97;;;14.91;100.00
71666;BME280;59503;53.486;10.196;2023-07-31T06:49:03;100632.88;;;14.93;100.00
71666;BME280;59503;53.486;10.196;2023-07-31T06:51:29;100637.94;;;14.98;100.00
71666;BME280;59503;53.486;10.196;2023-07-31T06:53:57;100622.31;;;14.99;100.00
71666;BME280;59503;53.486;10.196;2023-07-31T06:56:22;100630.91;;;15.08;100.00
71666;BME280;59503;53.486;10.196;2023-07-31T06:58:48;100630.09;;;15.11;100.00
71666;BME280;59503;53.486;10.196;2023-07-31T07:01:13;100630.88;;;15.19;100.00
71666;BME280;59503;53.486;10.196;2023-07-31T07:03:38;100627.34;;;15.25;100.00
71666;BME280;59503;53.486;10.196;2023-07-31T07:06:04;100630.81;;;15.33;100.00
71666;BME280;59503;53.486;10.196;2023-07-31T07:08:29;100626.88;;;15.37;100.00
71666;BME280;59503;53.486;10.196;2023-07-31T07:10:55;100625.72;;;15.38;100.00
71666;BME280;59503;53.486;10.196;2023-07-31T07:13:21;100633.97;;;15.42;100.00
71666;BME280;59503;53.486;10.196;2023-07-31T07:15:50;100637.50;;;15.32;100.00
71666;BME280;59503;53.486;10.196;2023-07-31T07:18:15;100628.09;;;15.22;100.00
71666;BME280;59503;53.486;10.196;2023-07-31T07:20:46;100641.41;;;15.27;100.00
71666;BME280;59503;53.486;10.196;2023-07-31T07:23:12;100651.19;;;15.25;100.00
71666;BME280;59503;53.486;10.196;2023-07-31T07:25:38;100638.66;;;15.27;100.00
71666;BME280;59503;53.486;10.196;2023-07-31T07:28:03;100637.88;;;15.34;100.00
71666;BME280;59503;53.486;10.196;2023-07-31T07:30:29;100643.72;;;15.32;100.00
71666;BME280;59503;53.486;10.196;2023-07-31T07:32:54;100636.31;;;15.33;100.00
71666;BME280;59503;53.486;10.196;2023-07-31T07:35:20;100630.03;;;15.32;100.00
71666;BME280;59503;53.486;10.196;2023-07-31T07:37:48;100635.53;;;15.39;100.00
71666;BME280;59503;53.486;10.196;2023-07-31T07:40:14;100635.50;;;15.43;100.00
71666;BME280;59503;53.486;10.196;2023-07-31T07:42:39;100626.91;;;15.44;100.00
71666;BME280;59503;53.486;10.196;2023-07-31T07:45:05;100621.06;;;15.42;100.00
71666;BME280;59503;53.486;10.196;2023-07-31T07:47:31;100622.19;;;15.48;100.00
71666;BME280;59503;53.486;10.196;2023-07-31T07:49:56;100626.50;;;15.49;100.00
71666;BME280;59503;53.486;10.196;2023-07-31T07:52:22;100612.78;;;15.53;100.00
71666;BME280;59503;53.486;10.196;2023-07-31T07:54:47;100608.88;;;15.54;100.00
71666;BME280;59503;53.486;10.196;2023-07-31T07:57:12;100615.91;;;15.58;100.00
71666;BME280;59503;53.486;10.196;2023-07-31T07:59:38;100612.31;;;15.68;100.00
71666;BME280;59503;53.486;10.196;2023-07-31T08:02:03;100617.78;;;15.72;100.00
71666;BME280;59503;53.486;10.196;2023-07-31T08:04:29;100616.16;;;15.81;100.00
71666;BME280;59503;53.486;10.196;2023-07-31T08:06:54;100599.41;;;15.72;100.00
71666;BME280;59503;53.486;10.196;2023-07-31T08:09:20;100602.06;;;15.79;100.00
71666;BME280;59503;53.486;10.196;2023-07-31T08:11:45;100606.34;;;15.87;100.00
71666;BME280;59503;53.486;10.196;2023-07-31T08:14:10;100602.44;;;15.88;100.00
71666;BME280;59503;53.486;10.196;2023-07-31T08:16:36;100588.34;;;15.86;100.00
71666;BME280;59503;53.486;10.196;2023-07-31T08:19:01;100592.28;;;15.85;100.00
71666;BME280;59503;53.486;10.196;2023-07-31T08:21:27;100591.44;;;15.92;100.00
71666;BME280;59503;53.486;10.196;2023-07-31T08:23:52;100581.31;;;15.85;100.00
71666;BME280;59503;53.486;10.196;2023-07-31T08:26:18;100583.63;;;15.90;100.00
71666;BME280;59503;53.486;10.196;2023-07-31T08:28:44;100584.34;;;15.98;100.00
71666;BME280;59503;53.486;10.196;2023-07-31T08:31:09;100577.25;;;16.07;100.00
71666;BME280;59503;53.486;10.196;2023-07-31T08:33:36;100574.84;;;16.09;100.00
71666;BME280;59503;53.486;10.196;2023-07-31T08:36:02;100575.72;;;15.99;100.00
71666;BME280;59503;53.486;10.196;2023-07-31T08:38:27;100580.78;;;16.04;100.00
71666;BME280;59503;53.486;10.196;2023-07-31T08:40:54;100556.88;;;16.05;100.00
71666;BME280;59503;53.486;10.196;2023-07-31T08:43:22;100572.09;;;16.13;100.00
71666;BME280;59503;53.486;10.196;2023-07-31T08:45:50;100562.72;;;16.10;100.00
71666;BME280;59503;53.486;10.196;2023-07-31T08:48:17;100559.16;;;16.13;100.00
71666;BME280;59503;53.486;10.196;2023-07-31T08:50:43;100568.91;;;16.18;100.00
71666;BME280;59503;53.486;10.196;2023-07-31T08:53:08;100565.41;;;16.17;100.00
71666;BME280;59503;53.486;10.196;2023-07-31T08:55:35;100559.13;;;16.21;100.00
71666;BME280;59503;53.486;10.196;2023-07-31T08:58:02;100559.50;;;16.23;100.00
71666;BME280;59503;53.486;10.196;2023-07-31T09:00:29;100551.22;;;16.30;100.00
71666;BME280;59503;53.486;10.196;2023-07-31T09:03:00;100558.19;;;16.38;100.00
71666;BME280;59503;53.486;10.196;2023-07-31T09:05:30;100560.84;;;16.48;100.00
71666;BME280;59503;53.486;10.196;2023-07-31T09:07:57;100553.41;;;16.49;100.00
71666;BME280;59503;53.486;10.196;2023-07-31T09:10:23;100549.50;;;16.50;100.00
71666;BME280;59503;53.486;10.196;2023-07-31T09:12:50;100555.31;;;16.55;100.00
71666;BME280;59503;53.486;10.196;2023-07-31T09:15:16;100551.06;;;16.51;100.00
71666;BME280;59503;53.486;10.196;2023-07-31T09:17:42;100545.19;;;16.49;100.00
71666;BME280;59503;53.486;10.196;2023-07-31T09:20:19;100541.59;;;16.55;100.00
71666;BME280;59503;53.486;10.196;2023-07-31T09:22:46;100537.31;;;16.54;100.00
71666;BME280;59503;53.486;10.196;2023-07-31T09:25:19;100534.94;;;16.56;100.00
71666;BME280;59503;53.486;10.196;2023-07-31T09:27:53;100532.19;;;16.56;100.00
71666;BME280;59503;53.486;10.196;2023-07-31T09:30:19;100540.75;;;16.62;100.00
71666;BME280;59503;53.486;10.196;2023-07-31T09:32:46;100536.78;;;16.66;100.00
71666;BME280;59503;53.486;10.196;2023-07-31T09:37:53;100521.09;;;16.67;100.00
71666;BME280;59503;53.486;10.196;2023-07-31T09:42:51;100518.66;;;16.76;100.00
71666;BME280;59503;53.486;10.196;2023-07-31T09:45:18;100518.28;;;16.74;100.00
71666;BME280;59503;53.486;10.196;2023-07-31T09:47:47;100514.38;;;16.71;100.00
71666;BME280;59503;53.486;10.196;2023-07-31T09:50:14;100512.41;;;16.72;100.00
71666;BME280;59503;53.486;10.196;2023-07-31T09:52:41;100504.53;;;16.74;100.00
71666;BME280;59503;53.486;10.196;2023-07-31T09:55:07;100510.03;;;16.74;100.00
71666;BME280;59503;53.486;10.196;2023-07-31T09:57:33;100494.44;;;16.67;100.00
71666;BME280;59503;53.486;10.196;2023-07-31T09:59:59;100491.25;;;16.69;100.00
71666;BME280;59503;53.486;10.196;2023-07-31T10:02:26;100492.88;;;16.66;100.00
71666;BME280;59503;53.486;10.196;2023-07-31T10:04:57;100489.03;;;16.57;100.00
71666;BME280;59503;53.486;10.196;2023-07-31T10:07:25;100490.31;;;16.49;100.00
71666;BME280;59503;53.486;10.196;2023-07-31T10:09:51;100480.56;;;16.41;100.00
71666;BME280;59503;53.486;10.196;2023-07-31T10:12:22;100484.94;;;16.35;100.00
71666;BME280;59503;53.486;10.196;2023-07-31T10:14:51;100478.22;;;16.39;100.00
71666;BME280;59503;53.486;10.196;2023-07-31T10:17:21;100490.00;;;16.40;100.00
71666;BME280;59503;53.486;10.196;2023-07-31T10:19:47;100478.97;;;16.43;100.00
71666;BME280;59503;53.486;10.196;2023-07-31T10:22:14;100480.22;;;16.35;100.00
71666;BME280;59503;53.486;10.196;2023-07-31T10:24:41;100479.84;;;16.33;100.00
71666;BME280;59503;53.486;10.196;2023-07-31T10:27:08;100479.13;;;16.26;100.00
71666;BME280;59503;53.486;10.196;2023-07-31T10:29:36;100479.13;;;16.29;100.00
71666;BME280;59503;53.486;10.196;2023-07-31T10:32:02;100479.09;;;16.33;100.00
71666;BME280;59503;53.486;10.196;2023-07-31T10:34:33;100481.03;;;16.32;100.00
71666;BME280;59503;53.486;10.196;2023-07-31T10:37:22;100483.38;;;16.34;100.00
71666;BME280;59503;53.486;10.196;2023-07-31T10:40:02;100480.66;;;16.30;100.00
71666;BME280;59503;53.486;10.196;2023-07-31T10:42:44;100473.28;;;16.24;100.00
71666;BME280;59503;53.486;10.196;2023-07-31T10:45:12;100467.34;;;16.29;100.00
71666;BME280;59503;53.486;10.196;2023-07-31T10:47:42;100465.75;;;16.35;100.00
71666;BME280;59503;53.486;10.196;2023-07-31T10:50:22;100458.69;;;16.34;100.00
71666;BME280;59503;53.486;10.196;2023-07-31T10:52:56;100465.59;;;16.49;100.00
71666;BME280;59503;53.486;10.196;2023-07-31T10:55:42;100459.53;;;16.68;100.00
71666;BME280;59503;53.486;10.196;2023-07-31T10:58:13;100464.84;;;16.82;100.00
71666;BME280;59503;53.486;10.196;2023-07-31T11:00:43;100460.44;;;16.91;100.00
71666;BME280;59503;53.486;10.196;2023-07-31T11:03:12;100455.19;;;17.00;100.00
71666;BME280;59503;53.486;10.196;2023-07-31T11:05:44;100449.25;;;17.05;100.00
71666;BME280;59503;53.486;10.196;2023-07-31T11:08:24;100451.53;;;17.10;100.00
71666;BME280;59503;53.486;10.196;2023-07-31T11:11:04;100454.66;;;17.12;100.00
71666;BME280;59503;53.486;10.196;2023-07-31T11:13:32;100457.69;;;17.21;100.00
71666;BME280;59503;53.486;10.196;2023-07-31T11:15:58;100449.03;;;17.23;100.00
71666;BME280;59503;53.486;10.196;2023-07-31T11:18:25;100439.63;;;17.20;100.00
71666;BME280;59503;53.486;10.196;2023-07-31T11:20:52;100449.81;;;17.23;100.00
71666;BME280;59503;53.486;10.196;2023-07-31T11:23:19;100439.94;;;17.26;100.00
71666;BME280;59503;53.486;10.196;2023-07-31T11:25:45;100437.19;;;17.26;100.00
71666;BME280;59503;53.486;10.196;2023-07-31T11:28:13;100445.03;;;17.27;100.00
71666;BME280;59503;53.486;10.196;2023-07-31T11:30:40;100447.34;;;17.29;100.00
71666;BME280;59503;53.486;10.196;2023-07-31T11:33:07;100441.16;;;17.25;100.00
71666;BME280;59503;53.486;10.196;2023-07-31T11:35:35;100440.34;;;17.24;100.00
71666;BME280;59503;53.486;10.196;2023-07-31T11:38:01;100439.44;;;17.34;100.00
71666;BME280;59503;53.486;10.196;2023-07-31T11:40:28;100424.97;;;17.30;100.00
71666;BME280;59503;53.486;10.196;2023-07-31T11:42:58;100430.16;;;17.25;100.00
71666;BME280;59503;53.486;10.196;2023-07-31T11:45:27;100427.41;;;17.25;100.00
71666;BME280;59503;53.486;10.196;2023-07-31T11:47:56;100430.53;;;17.27;100.00
71666;BME280;59503;53.486;10.196;2023-07-31T11:50:23;100427.88;;;17.20;100.00
71666;BME280;59503;53.486;10.196;2023-07-31T11:52:54;100423.97;;;17.17;100.00
71666;BME280;59503;53.486;10.196;2023-07-31T11:55:21;100422.84;;;17.15;100.00
71666;BME280;59503;53.486;10.196;2023-07-31T11:57:46;100417.41;;;17.11;100.00
71666;BME280;59503;53.486;10.196;2023-07-31T12:00:13;100423.13;;;17.20;100.00
71666;BME280;59503;53.486;10.196;2023-07-31T12:02:40;100414.50;;;17.22;100.00
71666;BME280;59503;53.486;10.196;2023-07-31T12:05:12;100416.31;;;17.32;100.00
71666;BME280;59503;53.486;10.196;2023-07-31T12:07:44;100411.84;;;17.42;100.00
71666;BME280;59503;53.486;10.196;2023-07-31T12:10:11;100414.59;;;17.42;100.00
71666;BME280;59503;53.486;10.196;2023-07-31T12:12:36;100419.72;;;17.39;100.00
71666;BME280;59503;53.486;10.196;2023-07-31T12:15:02;100423.00;;;17.31;100.00
71666;BME280;59503;53.486;10.196;2023-07-31T12:17:27;100421.44;;;17.30;100.00
71666;BME280;59503;53.486;10.196;2023-07-31T12:19:53;100417.31;;;17.18;100.00
71666;BME280;59503;53.486;10.196;2023-07-31T12:22:20;100412.94;;;17.21;100.00
71666;BME280;59503;53.486;10.196;2023-07-31T12:24:46;100415.28;;;17.22;100.00
71666;BME280;59503;53.486;10.196;2023-07-31T12:27:13;100408.19;;;17.25;100.00
71666;BME280;59503;53.486;10.196;2023-07-31T12:29:39;100405.81;;;17.27;100.00
71666;BME280;59503;53.486;10.196;2023-07-31T12:32:24;100402.69;;;17.25;100.00
71666;BME280;59503;53.486;10.196;2023-07-31T12:34:54;100391.88;;;17.37;100.00
71666;BME280;59503;53.486;10.196;2023-07-31T12:37:22;100397.81;;;17.36;100.00
71666;BME280;59503;53.486;10.196;2023-07-31T12:39:48;100393.03;;;17.40;100.00